sensor_id;sensor_type;location;lat;lon;timestamp;pressure;altitude;pressure_sealevel;temperature;humidity
11987;BME280;6053;51.382;6.768;2022-12-29T00:01:12;99921.47;;;10.83;100.00
11987;BME280;6053;51.382;6.768;2022-12-29T00:03:41;99919.31;;;10.69;100.00
11987;BME280;6053;51.382;6.768;2022-12-29T00:06:10;99905.38;;;10.58;100.00
11987;BME280;6053;51.382;6.768;2022-12-29T00:08:39;99901.97;;;10.51;100.00
11987;BME280;6053;51.382;6.768;2022-12-29T00:11:09;99897.78;;;10.49;100.00
11987;BME280;6053;51.382;6.768;2022-12-29T00:13:39;99895.28;;;10.47;100.00
11987;BME280;6053;51.382;6.768;2022-12-29T00:16:25;99892.69;;;10.57;100.00
11987;BME280;6053;51.382;6.768;2022-12-29T00:18:54;99898.56;;;10.83;100.00
11987;BME280;6053;51.382;6.768;2022-12-29T00:21:24;99874.94;;;10.92;100.00
11987;BME280;6053;51.382;6.768;2022-12-29T00:24:14;99886.88;;;10.76;100.00
11987;BME280;6053;51.382;6.768;2022-12-29T00:27:11;99878.41;;;10.82;100.00
11987;BME280;6053;51.382;6.768;2022-12-29T00:29:57;99885.53;;;10.78;100.00
11987;BME280;6053;51.382;6.768;2022-12-29T00:32:43;99877.16;;;10.90;100.00
11987;BME280;6053;51.382;6.768;2022-12-29T00:35:33;99876.34;;;10.73;100.00
11987;BME280;6053;51.382;6.768;2022-12-29T00:38:05;99875.31;;;10.79;100.00
11987;BME280;6053;51.382;6.768;2022-12-29T00:40:54;99876.75;;;10.81;100.00
11987;BME280;6053;51.382;6.768;2022-12-29T00:43:39;99864.16;;;10.69;100.00
11987;BME280;6053;51.382;6.768;2022-12-29T00:46:25;99869.47;;;10.75;100.00
11987;BME280;6053;51.382;6.768;2022-12-29T00:48:54;99869.16;;;10.50;100.00
11987;BME280;6053;51.382;6.768;2022-12-29T00:51:39;99857.34;;;10.54;100.00
11987;BME280;6053;51.382;6.768;2022-12-29T00:54:08;99850.94;;;10.71;100.00
11987;BME280;6053;51.382;6.768;2022-12-29T00:56:37;99851.38;;;10.62;100.00
11987;BME280;6053;51.382;6.768;2022-12-29T00:59:09;99839.91;;;10.71;100.00
11987;BME280;6053;51.382;6.768;2022-12-29T01:01:38;99847.28;;;10.65;100.00
11987;BME280;6053;51.382;6.768;2022-12-29T01:04:07;99851.13;;;10.64;100.00
11987;BME280;6053;51.382;6.768;2022-12-29T01:06:36;99840.44;;;10.68;100.00
11987;BME280;6053;51.382;6.768;2022-12-29T01:09:06;99851.53;;;10.95;100.00
11987;BME280;6053;51.382;6.768;2022-12-29T01:11:53;99845.31;;;11.04;100.00
11987;BME280;6053;51.382;6.768;2022-12-29T01:14:22;99837.66;;;10.90;100.00
11987;BME280;6053;51.382;6.768;2022-12-29T01:16:51;99835.28;;;10.98;100.00
11987;BME280;6053;51.382;6.768;2022-12-29T01:19:20;99835.94;;;11.05;100.00
11987;BME280;6053;51.382;6.768;2022-12-29T01:21:48;99834.59;;;11.08;100.00
11987;BME280;6053;51.382;6.768;2022-12-29T01:24:18;99839.84;;;11.09;100.00
11987;BME280;6053;51.382;6.768;2022-12-29T01:26:47;99835.41;;;11.08;100.00
11987;BME280;6053;51.382;6.768;2022-12-29T01:29:17;99848.00;;;11.21;100.00
11987;BME280;6053;51.382;6.768;2022-12-29T01:31:45;99829.28;;;11.28;100.00
11987;BME280;6053;51.382;6.768;2022-12-29T01:34:14;99822.31;;;11.21;100.00
11987;BME280;6053;51.382;6.768;2022-12-29T01:36:43;99819.28;;;11.22;100.00
11987;BME280;6053;51.382;6.768;2022-12-29T01:39:11;99818.88;;;11.36;100.00
11987;BME280;6053;51.382;6.768;2022-12-29T01:41:40;99822.63;;;11.24;100.00
11987;BME280;6053;51.382;6.768;2022-12-29T01:44:49;99827.94;;;11.31;100.00
11987;BME280;6053;51.382;6.768;2022-12-29T01:47:32;99828.72;;;11.26;100.00
11987;BME280;6053;51.382;6.768;2022-12-29T01:50:06;99817.47;;;11.33;100.00
11987;BME280;6053;51.382;6.768;2022-12-29T01:52:40;99815.97;;;11.47;100.00
11987;BME280;6053;51.382;6.768;2022-12-29T01:55:11;99817.94;;;11.25;100.00
11987;BME280;6053;51.382;6.768;2022-12-29T01:57:43;99816.72;;;11.43;100.00
11987;BME280;6053;51.382;6.768;2022-12-29T02:00:16;99807.25;;;11.61;100.00
11987;BME280;6053;51.382;6.768;2022-12-29T02:02:49;99796.16;;;11.28;100.00
11987;BME280;6053;51.382;6.768;2022-12-29T02:05:24;99807.09;;;11.18;100.00
11987;BME280;6053;51.382;6.768;2022-12-29T02:07:53;99811.91;;;11.28;100.00
11987;BME280;6053;51.382;6.768;2022-12-29T02:10:24;99821.94;;;11.39;100.00
11987;BME280;6053;51.382;6.768;2022-12-29T02:12:54;99812.53;;;11.35;100.00
11987;BME280;6053;51.382;6.768;2022-12-29T02:15:31;99818.88;;;11.36;100.00
11987;BME280;6053;51.382;6.768;2022-12-29T02:18:14;99804.50;;;11.33;100.00
11987;BME280;6053;51.382;6.768;2022-12-29T02:21:18;99807.31;;;11.39;100.00
11987;BME280;6053;51.382;6.768;2022-12-29T02:24:30;99798.72;;;11.35;100.00
11987;BME280;6053;51.382;6.768;2022-12-29T02:30:11;99799.09;;;11.44;100.00
11987;BME280;6053;51.382;6.768;2022-12-29T02:32:52;99800.44;;;11.41;100.00
11987;BME280;6053;51.382;6.768;2022-12-29T02:35:29;99798.44;;;11.37;100.00
11987;BME280;6053;51.382;6.768;2022-12-29T02:38:08;99790.38;;;11.30;100.00
11987;BME280;6053;51.382;6.768;2022-12-29T02:40:45;99776.56;;;11.30;100.00
11987;BME280;6053;51.382;6.768;2022-12-29T02:43:24;99790.84;;;11.22;100.00
11987;BME280;6053;51.382;6.768;2022-12-29T02:45:56;99787.50;;;11.20;100.00
11987;BME280;6053;51.382;6.768;2022-12-29T02:48:30;99785.63;;;11.25;100.00
11987;BME280;6053;51.382;6.768;2022-12-29T02:51:03;99786.34;;;11.43;100.00
11987;BME280;6053;51.382;6.768;2022-12-29T02:53:34;99786.47;;;11.26;100.00
11987;BME280;6053;51.382;6.768;2022-12-29T02:56:21;99782.94;;;11.30;100.00
11987;BME280;6053;51.382;6.768;2022-12-29T02:58:50;99774.47;;;11.42;100.00
11987;BME280;6053;51.382;6.768;2022-12-29T03:01:27;99765.66;;;11.40;100.00
11987;BME280;6053;51.382;6.768;2022-12-29T03:04:18;99774.19;;;11.39;100.00
11987;BME280;6053;51.382;6.768;2022-12-29T03:06:55;99772.31;;;11.44;100.00
11987;BME280;6053;51.382;6.768;2022-12-29T03:09:35;99769.75;;;11.70;100.00
11987;BME280;6053;51.382;6.768;2022-12-29T03:12:13;99758.97;;;11.36;100.00
11987;BME280;6053;51.382;6.768;2022-12-29T03:14:53;99776.13;;;11.43;100.00
11987;BME280;6053;51.382;6.768;2022-12-29T03:17:51;99772.22;;;11.34;100.00
11987;BME280;6053;51.382;6.768;2022-12-29T03:20:29;99765.25;;;11.59;100.00
11987;BME280;6053;51.382;6.768;2022-12-29T03:23:02;99770.84;;;11.69;100.00
11987;BME280;6053;51.382;6.768;2022-12-29T03:25:35;99751.16;;;11.60;100.00
11987;BME280;6053;51.382;6.768;2022-12-29T03:28:08;99748.59;;;11.48;100.00
11987;BME280;6053;51.382;6.768;2022-12-29T03:30:39;99757.88;;;11.69;100.00
11987;BME280;6053;51.382;6.768;2022-12-29T03:33:11;99755.00;;;11.54;100.00
11987;BME280;6053;51.382;6.768;2022-12-29T03:35:44;99749.72;;;11.52;100.00
11987;BME280;6053;51.382;6.768;2022-12-29T03:38:16;99755.44;;;11.41;100.00
11987;BME280;6053;51.382;6.768;2022-12-29T03:40:48;99752.03;;;11.66;100.00
11987;BME280;6053;51.382;6.768;2022-12-29T03:43:18;99758.59;;;11.54;100.00
11987;BME280;6053;51.382;6.768;2022-12-29T03:45:47;99749.69;;;11.47;100.00
11987;BME280;6053;51.382;6.768;2022-12-29T03:48:16;99746.63;;;11.44;100.00
11987;BME280;6053;51.382;6.768;2022-12-29T03:50:48;99734.25;;;11.51;100.00
11987;BME280;6053;51.382;6.768;2022-12-29T03:53:16;99735.97;;;11.57;100.00
11987;BME280;6053;51.382;6.768;2022-12-29T03:55:45;99733.16;;;11.52;100.00
11987;BME280;6053;51.382;6.768;2022-12-29T03:58:13;99729.56;;;11.52;100.00
11987;BME280;6053;51.382;6.768;2022-12-29T04:00:44;99715.81;;;11.62;100.00
11987;BME280;6053;51.382;6.768;2022-12-29T04:03:13;99724.13;;;11.62;100.00
11987;BME280;6053;51.382;6.768;2022-12-29T04:05:41;99709.81;;;11.70;100.00
11987;BME280;6053;51.382;6.768;2022-12-29T04:08:11;99697.00;;;11.59;100.00
11987;BME280;6053;51.382;6.768;2022-12-29T04:10:40;99713.13;;;11.72;100.00
11987;BME280;6053;51.382;6.768;2022-12-29T04:13:09;99716.94;;;11.66;100.00
11987;BME280;6053;51.382;6.768;2022-12-29T04:15:37;99698.66;;;11.55;100.00
11987;BME280;6053;51.382;6.768;2022-12-29T04:18:06;99709.47;;;11.62;100.00
11987;BME280;6053;51.382;6.768;2022-12-29T04:20:35;99701.22;;;11.67;100.00
11987;BME280;6053;51.382;6.768;2022-12-29T04:23:22;99702.59;;;11.64;100.00
11987;BME280;6053;51.382;6.768;2022-12-29T04:25:50;99704.75;;;11.57;100.00
11987;BME280;6053;51.382;6.768;2022-12-29T04:28:19;99719.19;;;11.69;100.00
11987;BME280;6053;51.382;6.768;2022-12-29T04:30:48;99706.97;;;11.60;100.00
11987;BME280;6053;51.382;6.768;2022-12-29T04:33:17;99706.72;;;11.67;100.00
11987;BME280;6053;51.382;6.768;2022-12-29T04:35:46;99715.31;;;11.65;100.00
11987;BME280;6053;51.382;6.768;2022-12-29T04:38:15;99715.06;;;11.72;100.00
11987;BME280;6053;51.382;6.768;2022-12-29T04:40:46;99702.69;;;11.79;100.00
11987;BME280;6053;51.382;6.768;2022-12-29T04:43:16;99702.91;;;11.73;100.00
11987;BME280;6053;51.382;6.768;2022-12-29T04:45:46;99696.84;;;11.71;100.00
11987;BME280;6053;51.382;6.768;2022-12-29T04:48:15;99701.50;;;11.65;100.00
11987;BME280;6053;51.382;6.768;2022-12-29T04:50:46;99718.72;;;11.77;100.00
11987;BME280;6053;51.382;6.768;2022-12-29T04:53:15;99728.69;;;11.84;100.00
11987;BME280;6053;51.382;6.768;2022-12-29T04:55:49;99731.38;;;11.73;100.00
11987;BME280;6053;51.382;6.768;2022-12-29T04:58:17;99726.41;;;11.70;100.00
11987;BME280;6053;51.382;6.768;2022-12-29T05:00:49;99722.63;;;11.49;100.00
11987;BME280;6053;51.382;6.768;2022-12-29T05:03:18;99733.34;;;11.41;100.00
11987;BME280;6053;51.382;6.768;2022-12-29T05:05:47;99729.84;;;11.50;100.00
11987;BME280;6053;51.382;6.768;2022-12-29T05:08:15;99728.50;;;11.58;100.00
11987;BME280;6053;51.382;6.768;2022-12-29T05:10:52;99727.75;;;11.68;100.00
11987;BME280;6053;51.382;6.768;2022-12-29T05:13:21;99730.13;;;11.54;100.00
11987;BME280;6053;51.382;6.768;2022-12-29T05:15:50;99738.22;;;11.66;100.00
11987;BME280;6053;51.382;6.768;2022-12-29T05:18:20;99742.44;;;11.41;100.00
11987;BME280;6053;51.382;6.768;2022-12-29T05:20:48;99771.69;;;11.37;100.00
11987;BME280;6053;51.382;6.768;2022-12-29T05:23:17;99759.72;;;11.59;100.00
11987;BME280;6053;51.382;6.768;2022-12-29T05:25:45;99750.16;;;11.71;100.00
11987;BME280;6053;51.382;6.768;2022-12-29T05:28:15;99767.13;;;11.53;100.00
11987;BME280;6053;51.382;6.768;2022-12-29T05:30:47;99765.91;;;11.71;100.00
11987;BME280;6053;51.382;6.768;2022-12-29T05:33:16;99778.84;;;11.65;100.00
11987;BME280;6053;51.382;6.768;2022-12-29T05:35:45;99766.41;;;11.36;100.00
11987;BME280;6053;51.382;6.768;2022-12-29T05:38:13;99766.78;;;11.17;100.00
11987;BME280;6053;51.382;6.768;2022-12-29T05:40:44;99767.53;;;11.07;100.00
11987;BME280;6053;51.382;6.768;2022-12-29T05:43:14;99773.38;;;11.16;100.00
11987;BME280;6053;51.382;6.768;2022-12-29T05:45:46;99777.50;;;10.87;100.00
11987;BME280;6053;51.382;6.768;2022-12-29T05:48:16;99769.22;;;10.65;100.00
11987;BME280;6053;51.382;6.768;2022-12-29T05:50:47;99785.06;;;10.74;100.00
11987;BME280;6053;51.382;6.768;2022-12-29T05:53:16;99769.41;;;10.80;100.00
11987;BME280;6053;51.382;6.768;2022-12-29T05:55:46;99778.50;;;11.02;100.00
11987;BME280;6053;51.382;6.768;2022-12-29T05:58:17;99783.88;;;10.92;100.00
11987;BME280;6053;51.382;6.768;2022-12-29T06:00:45;99790.34;;;11.25;100.00
11987;BME280;6053;51.382;6.768;2022-12-29T06:03:14;99796.97;;;11.24;100.00
11987;BME280;6053;51.382;6.768;2022-12-29T06:05:45;99799.06;;;11.71;100.00
11987;BME280;6053;51.382;6.768;2022-12-29T06:08:14;99805.38;;;11.39;100.00
11987;BME280;6053;51.382;6.768;2022-12-29T06:10:42;99809.28;;;11.70;100.00
11987;BME280;6053;51.382;6.768;2022-12-29T06:13:11;99803.47;;;11.99;100.00
11987;BME280;6053;51.382;6.768;2022-12-29T06:15:41;99801.19;;;11.91;100.00
11987;BME280;6053;51.382;6.768;2022-12-29T06:18:10;99811.72;;;11.67;100.00
11987;BME280;6053;51.382;6.768;2022-12-29T06:20:46;99814.44;;;11.62;100.00
11987;BME280;6053;51.382;6.768;2022-12-29T06:23:15;99803.63;;;11.06;100.00
11987;BME280;6053;51.382;6.768;2022-12-29T06:25:43;99819.50;;;11.16;100.00
11987;BME280;6053;51.382;6.768;2022-12-29T06:28:11;99814.47;;;11.35;100.00
11987;BME280;6053;51.382;6.768;2022-12-29T06:30:43;99829.81;;;11.52;100.00
11987;BME280;6053;51.382;6.768;2022-12-29T06:33:13;99825.31;;;11.46;100.00
11987;BME280;6053;51.382;6.768;2022-12-29T06:35:42;99830.50;;;11.38;100.00
11987;BME280;6053;51.382;6.768;2022-12-29T06:38:11;99831.81;;;11.57;100.00
11987;BME280;6053;51.382;6.768;2022-12-29T06:40:39;99835.44;;;11.36;100.00
11987;BME280;6053;51.382;6.768;2022-12-29T06:43:10;99833.63;;;10.97;100.00
11987;BME280;6053;51.382;6.768;2022-12-29T06:45:38;99834.88;;;11.33;100.00
11987;BME280;6053;51.382;6.768;2022-12-29T06:48:09;99837.47;;;11.45;100.00
11987;BME280;6053;51.382;6.768;2022-12-29T06:50:37;99837.56;;;11.28;100.00
11987;BME280;6053;51.382;6.768;2022-12-29T06:53:06;99839.50;;;11.28;100.00
11987;BME280;6053;51.382;6.768;2022-12-29T06:55:35;99837.66;;;11.33;100.00
11987;BME280;6053;51.382;6.768;2022-12-29T06:58:03;99835.34;;;11.25;100.00
11987;BME280;6053;51.382;6.768;2022-12-29T07:00:32;99836.16;;;11.26;100.00
11987;BME280;6053;51.382;6.768;2022-12-29T07:03:00;99845.72;;;11.40;100.00
11987;BME280;6053;51.382;6.768;2022-12-29T07:05:30;99844.94;;;11.45;100.00
11987;BME280;6053;51.382;6.768;2022-12-29T07:08:00;99844.66;;;11.19;100.00
11987;BME280;6053;51.382;6.768;2022-12-29T07:10:28;99856.88;;;11.50;100.00
11987;BME280;6053;51.382;6.768;2022-12-29T07:12:57;99840.94;;;11.30;100.00
11987;BME280;6053;51.382;6.768;2022-12-29T07:15:25;99849.44;;;11.51;100.00
11987;BME280;6053;51.382;6.768;2022-12-29T07:17:54;99853.34;;;11.33;100.00
11987;BME280;6053;51.382;6.768;2022-12-29T07:20:23;99859.38;;;11.52;100.00
11987;BME280;6053;51.382;6.768;2022-12-29T07:22:54;99879.22;;;11.49;100.00
11987;BME280;6053;51.382;6.768;2022-12-29T07:25:23;99866.19;;;11.44;100.00
11987;BME280;6053;51.382;6.768;2022-12-29T07:27:52;99860.78;;;11.27;100.00
11987;BME280;6053;51.382;6.768;2022-12-29T07:30:20;99876.03;;;11.35;100.00
11987;BME280;6053;51.382;6.768;2022-12-29T07:32:49;99879.38;;;11.37;100.00
11987;BME280;6053;51.382;6.768;2022-12-29T07:35:17;99871.28;;;11.30;100.00
11987;BME280;6053;51.382;6.768;2022-12-29T07:37:46;99868.69;;;11.46;100.00
11987;BME280;6053;51.382;6.768;2022-12-29T07:40:16;99871.81;;;11.27;100.00
11987;BME280;6053;51.382;6.768;2022-12-29T07:42:45;99888.28;;;11.44;100.00
11987;BME280;6053;51.382;6.768;2022-12-29T07:45:13;99893.31;;;11.47;100.00
11987;BME280;6053;51.382;6.768;2022-12-29T07:47:42;99897.00;;;11.58;100.00
11987;BME280;6053;51.382;6.768;2022-12-29T07:50:11;99901.19;;;11.61;100.00
11987;BME280;6053;51.382;6.768;2022-12-29T07:52:39;99894.22;;;11.31;100.00
11987;BME280;6053;51.382;6.768;2022-12-29T07:55:08;99902.28;;;11.16;100.00
11987;BME280;6053;51.382;6.768;2022-12-29T07:57:38;99907.38;;;11.24;100.00
11987;BME280;6053;51.382;6.768;2022-12-29T08:00:08;99908.00;;;11.09;100.00
11987;BME280;6053;51.382;6.768;2022-12-29T08:02:36;99913.41;;;11.70;100.00
11987;BME280;6053;51.382;6.768;2022-12-29T08:05:06;99913.31;;;11.60;100.00
11987;BME280;6053;51.382;6.768;2022-12-29T08:07:34;99920.41;;;11.50;100.00
11987;BME280;6053;51.382;6.768;2022-12-29T08:10:03;99920.69;;;11.27;100.00
11987;BME280;6053;51.382;6.768;2022-12-29T08:12:32;99918.50;;;11.56;100.00
11987;BME280;6053;51.382;6.768;2022-12-29T08:15:02;99919.34;;;11.56;100.00
11987;BME280;6053;51.382;6.768;2022-12-29T08:17:31;99931.84;;;10.93;100.00
11987;BME280;6053;51.382;6.768;2022-12-29T08:20:00;99923.63;;;11.20;100.00
11987;BME280;6053;51.382;6.768;2022-12-29T08:22:29;99926.81;;;10.90;100.00
11987;BME280;6053;51.382;6.768;2022-12-29T08:24:57;99931.63;;;11.00;100.00
11987;BME280;6053;51.382;6.768;2022-12-29T08:27:26;99940.63;;;11.12;100.00
11987;BME280;6053;51.382;6.768;2022-12-29T08:29:55;99937.47;;;11.25;100.00
11987;BME280;6053;51.382;6.768;2022-12-29T08:32:25;99938.78;;;11.18;100.00
11987;BME280;6053;51.382;6.768;2022-12-29T08:34:53;99929.53;;;11.29;100.00
11987;BME280;6053;51.382;6.768;2022-12-29T08:37:22;99940.56;;;11.29;100.00
11987;BME280;6053;51.382;6.768;2022-12-29T08:39:57;99952.94;;;11.04;100.00
11987;BME280;6053;51.382;6.768;2022-12-29T08:42:27;99956.88;;;11.08;100.00
11987;BME280;6053;51.382;6.768;2022-12-29T08:44:58;99951.44;;;11.14;100.00
11987;BME280;6053;51.382;6.768;2022-12-29T08:47:28;99960.03;;;10.78;100.00
11987;BME280;6053;51.382;6.768;2022-12-29T08:49:56;99972.81;;;10.68;100.00
11987;BME280;6053;51.382;6.768;2022-12-29T08:52:25;99972.91;;;10.56;100.00
11987;BME280;6053;51.382;6.768;2022-12-29T08:54:53;99953.09;;;10.42;100.00
11987;BME280;6053;51.382;6.768;2022-12-29T08:57:22;99963.78;;;10.55;100.00
11987;BME280;6053;51.382;6.768;2022-12-29T08:59:50;99967.63;;;10.88;100.00
11987;BME280;6053;51.382;6.768;2022-12-29T09:02:19;99966.84;;;10.93;100.00
11987;BME280;6053;51.382;6.768;2022-12-29T09:04:52;99969.41;;;10.99;100.00
11987;BME280;6053;51.382;6.768;2022-12-29T09:07:21;99984.44;;;10.87;100.00
11987;BME280;6053;51.382;6.768;2022-12-29T09:09:50;99978.16;;;11.13;100.00
11987;BME280;6053;51.382;6.768;2022-12-29T09:12:18;99980.22;;;11.01;100.00
11987;BME280;6053;51.382;6.768;2022-12-29T09:14:47;99965.88;;;11.21;100.00
11987;BME280;6053;51.382;6.768;2022-12-29T09:17:16;99977.06;;;10.92;100.00
11987;BME280;6053;51.382;6.768;2022-12-29T09:20:04;99978.31;;;11.45;100.00
11987;BME280;6053;51.382;6.768;2022-12-29T09:22:32;99967.84;;;11.03;100.00
11987;BME280;6053;51.382;6.768;2022-12-29T09:25:01;99974.94;;;10.99;100.00
11987;BME280;6053;51.382;6.768;2022-12-29T09:27:29;99979.59;;;11.16;100.00
11987;BME280;6053;51.382;6.768;2022-12-29T09:29:57;99974.91;;;11.16;100.00
11987;BME280;6053;51.382;6.768;2022-12-29T09:32:26;99975.34;;;11.30;100.00
11987;BME280;6053;51.382;6.768;2022-12-29T09:34:59;99977.66;;;10.94;100.00
11987;BME280;6053;51.382;6.768;2022-12-29T09:37:29;99993.84;;;11.07;100.00
11987;BME280;6053;51.382;6.768;2022-12-29T09:39:57;99985.38;;;11.36;100.00
11987;BME280;6053;51.382;6.768;2022-12-29T09:42:29;99989.84;;;10.98;100.00
11987;BME280;6053;51.382;6.768;2022-12-29T09:45:10;100000.53;;;11.12;100.00
11987;BME280;6053;51.382;6.768;2022-12-29T09:47:43;100009.34;;;10.92;100.00
11987;BME280;6053;51.382;6.768;2022-12-29T09:50:22;99992.88;;;10.97;100.00
11987;BME280;6053;51.382;6.768;2022-12-29T09:53:00;99999.88;;;11.04;100.00
11987;BME280;6053;51.382;6.768;2022-12-29T09:55:36;99997.66;;;11.06;100.00
11987;BME280;6053;51.382;6.768;2022-12-29T09:58:13;99989.28;;;11.18;100.00
11987;BME280;6053;51.382;6.768;2022-12-29T10:00:50;99988.00;;;11.04;100.00
11987;BME280;6053;51.382;6.768;2022-12-29T10:03:24;99992.72;;;11.47;100.00
11987;BME280;6053;51.382;6.768;2022-12-29T10:06:04;99995.28;;;11.32;100.00
11987;BME280;6053;51.382;6.768;2022-12-29T10:08:43;99997.31;;;11.20;100.00
11987;BME280;6053;51.382;6.768;2022-12-29T10:11:27;99982.94;;;11.18;100.00
11987;BME280;6053;51.382;6.768;2022-12-29T10:14:18;100003.28;;;11.12;100.00
11987;BME280;6053;51.382;6.768;2022-12-29T10:17:01;99992.50;;;11.32;100.00
11987;BME280;6053;51.382;6.768;2022-12-29T10:20:01;99996.28;;;11.26;100.00
11987;BME280;6053;51.382;6.768;2022-12-29T10:22:47;99994.63;;;11.25;100.00
11987;BME280;6053;51.382;6.768;2022-12-29T10:25:25;100005.34;;;11.43;100.00
11987;BME280;6053;51.382;6.768;2022-12-29T10:28:04;100003.41;;;11.22;100.00
11987;BME280;6053;51.382;6.768;2022-12-29T10:30:34;100007.38;;;11.48;100.00
11987;BME280;6053;51.382;6.768;2022-12-29T10:33:07;100019.84;;;11.50;100.00
11987;BME280;6053;51.382;6.768;2022-12-29T10:35:39;100016.47;;;11.48;100.00
11987;BME280;6053;51.382;6.768;2022-12-29T10:38:18;100020.72;;;11.56;100.00
11987;BME280;6053;51.382;6.768;2022-12-29T10:40:54;100017.44;;;11.37;100.00
11987;BME280;6053;51.382;6.768;2022-12-29T10:43:28;100014.13;;;11.18;100.00
11987;BME280;6053;51.382;6.768;2022-12-29T10:46:02;100042.16;;;11.27;100.00
11987;BME280;6053;51.382;6.768;2022-12-29T10:48:34;100034.59;;;11.39;100.00
11987;BME280;6053;51.382;6.768;2022-12-29T10:51:05;100041.91;;;11.28;100.00
11987;BME280;6053;51.382;6.768;2022-12-29T10:53:42;100036.50;;;11.39;100.00
11987;BME280;6053;51.382;6.768;2022-12-29T10:56:25;100046.13;;;11.36;100.00
11987;BME280;6053;51.382;6.768;2022-12-29T10:58:59;100034.53;;;11.56;100.00
11987;BME280;6053;51.382;6.768;2022-12-29T11:01:38;100041.56;;;11.25;100.00
11987;BME280;6053;51.382;6.768;2022-12-29T11:04:26;100040.44;;;11.43;100.00
11987;BME280;6053;51.382;6.768;2022-12-29T11:06:57;100051.97;;;11.40;100.00
11987;BME280;6053;51.382;6.768;2022-12-29T11:09:29;100047.06;;;11.42;100.00
11987;BME280;6053;51.382;6.768;2022-12-29T11:12:27;100066.84;;;11.55;100.00
11987;BME280;6053;51.382;6.768;2022-12-29T11:15:13;100060.44;;;11.33;100.00
11987;BME280;6053;51.382;6.768;2022-12-29T11:17:46;100062.94;;;11.51;100.00
11987;BME280;6053;51.382;6.768;2022-12-29T11:20:31;100061.91;;;11.57;100.00
11987;BME280;6053;51.382;6.768;2022-12-29T11:23:01;100066.00;;;11.16;100.00
11987;BME280;6053;51.382;6.768;2022-12-29T11:25:30;100073.06;;;11.46;100.00
11987;BME280;6053;51.382;6.768;2022-12-29T11:28:04;100068.91;;;11.26;100.00
11987;BME280;6053;51.382;6.768;2022-12-29T11:30:42;100066.53;;;11.52;100.00
11987;BME280;6053;51.382;6.768;2022-12-29T11:33:11;100084.81;;;11.19;100.00
11987;BME280;6053;51.382;6.768;2022-12-29T11:35:41;100083.91;;;11.30;100.00
11987;BME280;6053;51.382;6.768;2022-12-29T11:38:19;100083.56;;;11.27;100.00
11987;BME280;6053;51.382;6.768;2022-12-29T11:40:49;100079.41;;;11.46;100.00
11987;BME280;6053;51.382;6.768;2022-12-29T11:43:23;100066.78;;;11.50;100.00
11987;BME280;6053;51.382;6.768;2022-12-29T11:45:54;100101.66;;;11.18;100.00
11987;BME280;6053;51.382;6.768;2022-12-29T11:48:24;100080.66;;;11.55;100.00
11987;BME280;6053;51.382;6.768;2022-12-29T11:50:57;100088.56;;;11.30;100.00
11987;BME280;6053;51.382;6.768;2022-12-29T11:53:32;100102.38;;;11.30;100.00
11987;BME280;6053;51.382;6.768;2022-12-29T11:56:08;100100.13;;;11.44;100.00
11987;BME280;6053;51.382;6.768;2022-12-29T11:58:40;100101.59;;;11.51;100.00
11987;BME280;6053;51.382;6.768;2022-12-29T12:01:16;100099.41;;;11.53;100.00
11987;BME280;6053;51.382;6.768;2022-12-29T12:03:52;100104.97;;;11.75;100.00
11987;BME280;6053;51.382;6.768;2022-12-29T12:06:26;100099.66;;;11.52;100.00
11987;BME280;6053;51.382;6.768;2022-12-29T12:08:58;100107.03;;;11.46;100.00
11987;BME280;6053;51.382;6.768;2022-12-29T12:11:31;100100.59;;;11.57;100.00
11987;BME280;6053;51.382;6.768;2022-12-29T12:14:12;100104.69;;;11.55;100.00
11987;BME280;6053;51.382;6.768;2022-12-29T12:16:49;100108.25;;;11.33;100.00
11987;BME280;6053;51.382;6.768;2022-12-29T12:19:30;100100.63;;;11.41;100.00
11987;BME280;6053;51.382;6.768;2022-12-29T12:22:08;100115.28;;;11.24;100.00
11987;BME280;6053;51.382;6.768;2022-12-29T12:24:42;100109.50;;;11.26;100.00
11987;BME280;6053;51.382;6.768;2022-12-29T12:27:18;100123.13;;;11.32;100.00
11987;BME280;6053;51.382;6.768;2022-12-29T12:29:55;100107.47;;;11.38;100.00
11987;BME280;6053;51.382;6.768;2022-12-29T12:32:35;100130.53;;;11.10;100.00
11987;BME280;6053;51.382;6.768;2022-12-29T12:35:12;100126.63;;;11.45;100.00
11987;BME280;6053;51.382;6.768;2022-12-29T12:37:58;100129.38;;;11.84;100.00
11987;BME280;6053;51.382;6.768;2022-12-29T12:41:00;100131.59;;;11.26;100.00
11987;BME280;6053;51.382;6.768;2022-12-29T12:43:44;100141.44;;;11.39;100.00
11987;BME280;6053;51.382;6.768;2022-12-29T12:46:46;100128.63;;;11.49;100.00
11987;BME280;6053;51.382;6.768;2022-12-29T12:49:50;100130.50;;;11.27;100.00
11987;BME280;6053;51.382;6.768;2022-12-29T12:52:33;100142.63;;;11.82;100.00
11987;BME280;6053;51.382;6.768;2022-12-29T12:55:30;100151.75;;;11.26;100.00
11987;BME280;6053;51.382;6.768;2022-12-29T12:58:09;100153.00;;;11.19;100.00
11987;BME280;6053;51.382;6.768;2022-12-29T13:00:51;100147.47;;;11.19;100.00
11987;BME280;6053;51.382;6.768;2022-12-29T13:03:32;100142.94;;;11.46;100.00
11987;BME280;6053;51.382;6.768;2022-12-29T13:06:18;100139.03;;;11.42;100.00
11987;BME280;6053;51.382;6.768;2022-12-29T13:09:03;100160.56;;;11.23;100.00
11987;BME280;6053;51.382;6.768;2022-12-29T13:11:47;100151.16;;;11.41;100.00
11987;BME280;6053;51.382;6.768;2022-12-29T13:14:29;100162.22;;;11.07;100.00
11987;BME280;6053;51.382;6.768;2022-12-29T13:17:06;100157.09;;;10.99;100.00
11987;BME280;6053;51.382;6.768;2022-12-29T13:19:43;100164.63;;;11.04;100.00
11987;BME280;6053;51.382;6.768;2022-12-29T13:22:20;100160.03;;;11.26;100.00
11987;BME280;6053;51.382;6.768;2022-12-29T13:25:03;100164.38;;;11.39;100.00
11987;BME280;6053;51.382;6.768;2022-12-29T13:27:39;100157.53;;;11.25;100.00
11987;BME280;6053;51.382;6.768;2022-12-29T13:30:17;100166.06;;;11.23;100.00
11987;BME280;6053;51.382;6.768;2022-12-29T13:32:58;100170.00;;;11.11;100.00
11987;BME280;6053;51.382;6.768;2022-12-29T13:35:49;100167.97;;;11.23;100.00